createdAt,value
2022-09-04T00:00:18.998Z,3.25
2022-09-04T00:03:10.737Z,3.58
2022-09-04T00:05:40.579Z,2.97
2022-09-04T00:08:19.033Z,3.63
2022-09-04T00:10:51.212Z,4.55
2022-09-04T00:13:22.653Z,3.95
2022-09-04T00:15:54.116Z,3.92
2022-09-04T00:18:34.824Z,3.10
2022-09-04T00:21:08.493Z,3.70
2022-09-04T00:23:51.094Z,3.80
2022-09-04T00:26:22.307Z,2.88
2022-09-04T00:28:57.007Z,3.20
2022-09-04T00:32:19.100Z,2.10
2022-09-04T00:34:53.599Z,2.63
2022-09-04T00:37:24.356Z,3.78
2022-09-04T00:40:00.063Z,2.45
2022-09-04T00:42:35.537Z,3.13
2022-09-04T00:45:33.198Z,3.80
2022-09-04T00:48:35.625Z,3.72
2022-09-04T00:51:20.650Z,4.80
2022-09-04T00:54:08.929Z,4.22
2022-09-04T00:59:02.163Z,4.05
2022-09-04T01:01:29.032Z,3.85
2022-09-04T01:04:07.832Z,3.92
2022-09-04T01:06:49.962Z,3.88
2022-09-04T01:09:25.258Z,3.55
2022-09-04T01:12:12.945Z,2.42
2022-09-04T01:14:49.095Z,3.30
2022-09-04T01:18:04.308Z,4.88
2022-09-04T01:20:39.867Z,5.28
2022-09-04T01:23:38.608Z,2.55
2022-09-04T01:26:20.126Z,4.38
2022-09-04T01:29:07.316Z,3.67
2022-09-04T01:31:55.447Z,3.03
2022-09-04T01:34:28.309Z,4.38
2022-09-04T01:37:10.832Z,3.70
2022-09-04T01:39:38.523Z,2.92
2022-09-04T01:42:15.009Z,3.83
2022-09-04T01:44:41.762Z,3.28
2022-09-04T01:47:17.035Z,4.10
2022-09-04T01:49:54.256Z,3.90
2022-09-04T01:52:51.167Z,3.10
2022-09-04T01:55:17.777Z,3.28
2022-09-04T01:58:04.731Z,3.90
2022-09-04T02:00:37.864Z,4.20
2022-09-04T02:03:24.271Z,3.08
2022-09-04T02:06:09.881Z,3.28
2022-09-04T02:08:43.758Z,3.63
2022-09-04T02:11:28.189Z,2.53
2022-09-04T02:14:19.338Z,3.22
2022-09-04T02:17:01.200Z,5.32
2022-09-04T02:19:55.692Z,3.15
2022-09-04T02:22:29.277Z,3.42
2022-09-04T02:25:28.257Z,3.08
2022-09-04T02:28:00.933Z,4.35
2022-09-04T02:30:30.882Z,4.03
2022-09-04T02:33:25.566Z,4.05
2022-09-04T02:36:12.751Z,3.75
2022-09-04T02:38:52.086Z,4.40
2022-09-04T02:41:40.551Z,4.47
2022-09-04T02:44:37.837Z,3.50
2022-09-04T02:47:17.656Z,4.17
2022-09-04T02:50:09.016Z,2.85
2022-09-04T02:52:56.090Z,4.45
2022-09-04T02:55:52.973Z,3.90
2022-09-04T02:58:42.308Z,3.50
2022-09-04T03:01:22.540Z,4.18
2022-09-04T03:04:10.649Z,5.22
2022-09-04T03:06:55.402Z,5.40
2022-09-04T03:09:43.241Z,2.42
2022-09-04T03:12:26.528Z,3.75
2022-09-04T03:15:10.958Z,3.38
2022-09-04T03:17:54.076Z,3.75
2022-09-04T03:20:26.886Z,4.07
2022-09-04T03:23:13.587Z,3.72
2022-09-04T03:25:43.069Z,3.10
2022-09-04T03:28:16.735Z,2.63
2022-09-04T03:30:43.388Z,2.25
2022-09-04T03:33:33.482Z,5.63
2022-09-04T03:36:29.437Z,3.33
2022-09-04T03:39:08.130Z,2.95
2022-09-04T03:41:42.608Z,3.40
2022-09-04T03:44:34.329Z,2.28
2022-09-04T03:47:07.040Z,3.55
2022-09-04T03:49:44.106Z,4.07
2022-09-04T03:52:23.732Z,2.78
2022-09-04T03:55:24.397Z,3.70
2022-09-04T03:58:01.684Z,2.72
2022-09-04T04:00:38.789Z,3.60
2022-09-04T04:03:13.166Z,3.40
2022-09-04T04:06:10.913Z,3.25
2022-09-04T04:08:48.991Z,3.03
2022-09-04T04:11:28.001Z,3.55
2022-09-04T04:13:58.151Z,2.58
2022-09-04T04:16:40.626Z,3.08
2022-09-04T04:19:33.809Z,7.10
2022-09-04T04:22:28.049Z,3.20
2022-09-04T04:25:06.910Z,2.72
2022-09-04T04:27:54.051Z,4.63
2022-09-04T04:30:21.048Z,2.88
2022-09-04T04:33:11.113Z,5.03
2022-09-04T04:35:54.779Z,2.78
2022-09-04T04:39:05.699Z,2.20
2022-09-04T04:42:02.999Z,3.83
2022-09-04T04:45:03.656Z,4.70
2022-09-04T04:48:04.140Z,3.20
2022-09-04T04:50:53.713Z,3.28
2022-09-04T04:53:42.922Z,3.40
2022-09-04T04:56:15.345Z,4.50
2022-09-04T04:59:09.664Z,4.75
2022-09-04T05:01:44.402Z,3.80
2022-09-04T05:04:23.247Z,3.95
2022-09-04T05:06:56.807Z,3.28
2022-09-04T05:09:42.100Z,3.22
2022-09-04T05:12:54.740Z,4.68
2022-09-04T05:15:58.172Z,3.28
2022-09-04T05:18:39.576Z,5.30
2022-09-04T05:21:17.708Z,3.05
2022-09-04T05:23:54.709Z,3.63
2022-09-04T05:26:36.573Z,3.65
2022-09-04T05:29:47.599Z,3.17
2022-09-04T05:32:33.027Z,4.55
2022-09-04T05:35:35.276Z,3.17
2022-09-04T05:38:16.513Z,4.25
2022-09-04T05:41:04.081Z,3.38
2022-09-04T05:43:40.131Z,3.33
2022-09-04T05:46:15.935Z,3.88
2022-09-04T05:48:47.385Z,3.28
2022-09-04T05:51:26.765Z,2.35
2022-09-04T05:54:05.453Z,4.32
2022-09-04T05:56:37.840Z,2.45
2022-09-04T05:59:43.871Z,6.57
2022-09-04T06:02:17.011Z,6.95
2022-09-04T06:04:49.617Z,3.60
2022-09-04T06:07:30.287Z,3.92
2022-09-04T06:10:06.017Z,6.97
2022-09-04T06:13:00.891Z,2.80
2022-09-04T06:15:57.780Z,4.47
2022-09-04T06:18:41.805Z,3.78
2022-09-04T06:21:39.328Z,3.83
2022-09-04T06:24:37.465Z,3.70
2022-09-04T06:29:36.771Z,4.45
2022-09-04T06:32:35.722Z,2.95
2022-09-04T06:35:11.527Z,5.10
2022-09-04T06:37:51.967Z,4.47
2022-09-04T06:40:41.024Z,4.18
2022-09-04T06:43:29.572Z,5.97
2022-09-04T06:46:21.437Z,5.78
2022-09-04T06:49:19.160Z,3.35
2022-09-04T06:52:23.157Z,4.53
2022-09-04T06:54:59.969Z,3.45
2022-09-04T06:57:38.863Z,4.97
2022-09-04T07:00:10.241Z,4.57
2022-09-04T07:03:04.871Z,3.42
2022-09-04T07:05:46.625Z,4.57
2022-09-04T07:08:48.145Z,6.60
2022-09-04T07:11:17.818Z,5.20
2022-09-04T07:13:56.589Z,4.13
2022-09-04T07:16:33.046Z,4.20
2022-09-04T07:19:24.069Z,4.47
2022-09-04T07:22:17.980Z,2.72
2022-09-04T07:24:56.819Z,3.47
2022-09-04T07:27:39.177Z,3.28
2022-09-04T07:30:08.327Z,3.83
2022-09-04T07:32:47.060Z,3.58
2022-09-04T07:35:38.508Z,3.28
2022-09-04T07:38:27.659Z,4.90
2022-09-04T07:41:17.719Z,4.25
2022-09-04T07:43:57.765Z,3.53
2022-09-04T07:46:57.529Z,4.05
2022-09-04T07:49:30.605Z,4.63
2022-09-04T07:52:03.457Z,3.15
2022-09-04T07:54:36.112Z,2.85
2022-09-04T07:57:24.265Z,4.00
2022-09-04T08:00:22.894Z,3.83
2022-09-04T08:03:24.874Z,5.05
2022-09-04T08:06:06.730Z,3.50
2022-09-04T08:08:56.476Z,5.00
2022-09-04T08:11:32.205Z,2.65
2022-09-04T08:14:18.547Z,3.97
2022-09-04T08:17:25.405Z,3.08
2022-09-04T08:19:57.621Z,2.40
2022-09-04T08:22:39.017Z,3.03
2022-09-04T08:25:08.627Z,3.00
2022-09-04T08:27:59.313Z,3.78
2022-09-04T08:30:31.361Z,3.10
2022-09-04T08:33:20.657Z,5.68
2022-09-04T08:36:07.655Z,3.42
2022-09-04T08:38:37.208Z,3.15
2022-09-04T08:41:22.948Z,3.65
2022-09-04T08:44:11.025Z,4.13
2022-09-04T08:46:59.365Z,2.72
2022-09-04T08:49:54.151Z,5.28
2022-09-04T08:52:40.137Z,3.85
2022-09-04T08:55:34.290Z,3.63
2022-09-04T08:58:19.808Z,3.60
2022-09-04T09:01:18.656Z,4.72
2022-09-04T09:03:54.242Z,2.30
2022-09-04T09:06:36.052Z,3.45
2022-09-04T09:09:36.736Z,3.42
2022-09-04T09:12:28.014Z,3.55
2022-09-04T09:15:20.302Z,3.10
2022-09-04T09:18:08.373Z,2.88
2022-09-04T09:20:54.354Z,2.78
2022-09-04T09:23:45.459Z,2.92
2022-09-04T09:26:34.612Z,2.78
2022-09-04T09:29:04.219Z,3.42
2022-09-04T09:31:49.668Z,3.15
2022-09-04T09:34:46.350Z,2.35
2022-09-04T09:37:25.290Z,3.72
2022-09-04T09:40:31.884Z,3.88
2022-09-04T09:43:19.559Z,3.17
2022-09-04T09:46:07.733Z,5.78
2022-09-04T09:51:57.433Z,3.15
2022-09-04T09:54:45.623Z,3.83
2022-09-04T10:00:09.732Z,2.75
2022-09-04T10:03:14.101Z,2.30
2022-09-04T10:06:13.000Z,2.45
2022-09-04T10:09:01.409Z,3.03
2022-09-04T10:11:54.155Z,2.40
2022-09-04T10:14:51.512Z,2.40
2022-09-04T10:17:36.000Z,3.22
2022-09-04T10:20:14.968Z,2.72
2022-09-04T10:23:07.874Z,3.10
2022-09-04T10:25:55.517Z,3.22
2022-09-04T10:28:49.868Z,3.40
2022-09-04T10:31:25.552Z,2.15
2022-09-04T10:34:07.139Z,2.83
2022-09-04T10:36:55.495Z,2.95
2022-09-04T10:40:04.193Z,2.47
2022-09-04T10:43:10.241Z,2.10
2022-09-04T10:45:46.678Z,3.90
2022-09-04T10:48:26.567Z,2.35
2022-09-04T10:51:08.393Z,4.65
2022-09-04T10:53:51.271Z,4.25
2022-09-04T10:56:45.280Z,2.75
2022-09-04T10:59:29.725Z,3.88
2022-09-04T11:02:17.514Z,2.28
2022-09-04T11:05:09.081Z,3.15
2022-09-04T11:08:08.099Z,2.45
2022-09-04T11:10:43.113Z,2.92
2022-09-04T11:13:34.503Z,4.25
2022-09-04T11:16:16.426Z,2.17
2022-09-04T11:19:04.009Z,2.67
2022-09-04T11:21:49.579Z,3.42
2022-09-04T11:24:59.961Z,3.15
2022-09-04T11:27:51.871Z,3.22
2022-09-04T11:30:39.102Z,2.72
2022-09-04T11:33:37.349Z,5.55
2022-09-04T11:36:52.733Z,2.75
2022-09-04T11:39:45.513Z,2.83
2022-09-04T11:42:42.868Z,3.75
2022-09-04T11:45:29.099Z,3.40
2022-09-04T11:48:34.288Z,1.83
2022-09-04T11:51:21.874Z,1.65
2022-09-04T11:54:09.390Z,2.13
2022-09-04T11:56:51.150Z,2.67
2022-09-04T11:59:23.529Z,2.45
2022-09-04T12:02:29.176Z,1.17
2022-09-04T12:05:39.181Z,2.13
2022-09-04T12:08:24.236Z,2.00
2022-09-04T12:10:55.901Z,1.27
2022-09-04T12:13:43.973Z,1.85
2022-09-04T12:19:01.852Z,1.85
2022-09-04T12:22:21.231Z,1.70
2022-09-04T12:25:10.967Z,1.38
2022-09-04T12:27:43.377Z,1.45
2022-09-04T12:30:20.327Z,1.67
2022-09-04T12:33:08.277Z,1.10
2022-09-04T12:35:43.172Z,1.17
2022-09-04T12:38:26.322Z,1.15
2022-09-04T12:40:58.952Z,2.80
2022-09-04T12:43:38.770Z,0.95
2022-09-04T12:46:10.729Z,1.40
2022-09-04T12:49:09.692Z,0.98
2022-09-04T12:51:50.999Z,1.23
2022-09-04T12:54:43.534Z,1.70
2022-09-04T12:57:19.197Z,1.15
2022-09-04T12:59:58.132Z,3.28
2022-09-04T13:02:24.913Z,1.25
2022-09-04T13:05:02.498Z,2.28
2022-09-04T13:07:50.406Z,2.40
2022-09-04T13:12:58.599Z,1.40
2022-09-04T13:15:46.681Z,1.88
2022-09-04T13:18:21.290Z,1.65
2022-09-04T13:20:56.913Z,1.25
2022-09-04T13:23:29.435Z,1.50
2022-09-04T13:26:05.166Z,1.92
2022-09-04T13:28:56.387Z,1.05
2022-09-04T13:31:25.763Z,0.90
2022-09-04T13:34:01.550Z,1.13
2022-09-04T13:36:44.472Z,1.20
2022-09-04T13:39:14.096Z,2.05
2022-09-04T13:42:10.929Z,1.02
2022-09-04T13:45:05.839Z,1.52
2022-09-04T13:48:06.478Z,0.82
2022-09-04T13:50:43.389Z,2.28
2022-09-04T13:53:33.328Z,2.10
2022-09-04T13:56:05.364Z,1.02
2022-09-04T13:58:39.238Z,1.50
2022-09-04T14:01:15.434Z,1.20
2022-09-04T14:04:02.818Z,1.58
2022-09-04T14:06:30.927Z,0.82
2022-09-04T14:09:05.344Z,1.35
2022-09-04T14:11:58.180Z,1.33
2022-09-04T14:14:49.065Z,1.35
2022-09-04T14:17:23.332Z,2.35
2022-09-04T14:20:16.089Z,1.20
2022-09-04T14:23:06.711Z,1.42
2022-09-04T14:25:36.398Z,1.13
2022-09-04T14:28:23.221Z,2.80
2022-09-04T14:31:10.635Z,1.40
2022-09-04T14:33:53.557Z,1.20
2022-09-04T14:36:25.644Z,0.75
2022-09-04T14:39:21.298Z,2.20
2022-09-04T14:42:13.135Z,1.13
2022-09-04T14:44:57.891Z,2.25
2022-09-04T14:47:43.605Z,2.15
2022-09-04T14:50:13.319Z,0.98
2022-09-04T14:52:46.495Z,1.23
2022-09-04T14:55:31.131Z,1.70
2022-09-04T14:58:19.617Z,1.02
2022-09-04T15:01:07.202Z,2.25
2022-09-04T15:03:46.388Z,2.55
2022-09-04T15:06:16.364Z,1.35
2022-09-04T15:08:44.413Z,1.60
2022-09-04T15:11:31.556Z,1.40
2022-09-04T15:14:28.435Z,0.90
2022-09-04T15:17:03.483Z,2.10
2022-09-04T15:19:38.101Z,1.20
2022-09-04T15:22:45.702Z,2.65
2022-09-04T15:28:17.382Z,1.10
2022-09-04T15:30:47.073Z,1.25
2022-09-04T15:33:22.859Z,1.20
2022-09-04T15:36:04.542Z,1.17
2022-09-04T15:38:32.687Z,1.00
2022-09-04T15:43:51.346Z,1.13
2022-09-04T15:46:33.178Z,1.23
2022-09-04T15:49:27.214Z,0.98
2022-09-04T15:52:44.682Z,1.30
2022-09-04T15:58:09.830Z,2.28
2022-09-04T16:00:40.520Z,1.42
2022-09-04T16:03:15.211Z,1.45
2022-09-04T16:05:47.959Z,1.33
2022-09-04T16:08:29.920Z,0.73
2022-09-04T16:11:01.573Z,1.50
2022-09-04T16:13:30.684Z,1.58
2022-09-04T16:16:11.553Z,1.20
2022-09-04T16:18:38.172Z,1.73
2022-09-04T16:21:12.353Z,1.33
2022-09-04T16:23:39.369Z,1.63
2022-09-04T16:26:11.920Z,1.15
2022-09-04T16:28:43.739Z,2.13
2022-09-04T16:31:13.007Z,1.27
2022-09-04T16:33:52.118Z,1.75
2022-09-04T16:36:40.652Z,1.73
2022-09-04T16:39:14.554Z,1.50
2022-09-04T16:41:54.270Z,1.23
2022-09-04T16:44:47.754Z,1.60
2022-09-04T16:47:27.414Z,1.33
2022-09-04T16:50:13.515Z,2.33
2022-09-04T16:52:58.860Z,1.60
2022-09-04T16:55:57.808Z,2.63
2022-09-04T16:58:35.243Z,2.30
2022-09-04T17:01:35.522Z,1.95
2022-09-04T17:04:23.912Z,1.75
2022-09-04T17:07:02.815Z,2.17
2022-09-04T17:09:41.680Z,3.20
2022-09-04T17:12:18.185Z,1.73
2022-09-04T17:14:50.091Z,4.47
2022-09-04T17:17:30.723Z,2.17
2022-09-04T17:20:08.725Z,3.78
2022-09-04T17:28:58.960Z,1.92
2022-09-04T17:29:12.868Z,1.55
2022-09-04T17:29:29.873Z,3.47
2022-09-04T17:31:49.209Z,2.25
2022-09-04T17:40:38.039Z,2.35
2022-09-04T17:40:40.889Z,2.00
2022-09-04T17:40:48.032Z,1.60
2022-09-04T17:43:22.702Z,1.73
2022-09-04T17:45:51.412Z,2.25
2022-09-04T17:48:27.449Z,1.95
2022-09-04T17:51:03.347Z,3.00
2022-09-04T17:53:34.096Z,2.45
2022-09-04T17:56:19.943Z,2.60
2022-09-04T17:58:52.695Z,2.60
2022-09-04T18:01:31.124Z,2.70
2022-09-04T18:04:26.288Z,3.67
2022-09-04T18:07:21.400Z,3.67
2022-09-04T18:10:34.283Z,3.05
2022-09-04T18:13:36.952Z,3.60
2022-09-04T18:16:15.098Z,3.60
2022-09-04T18:19:19.370Z,3.13
2022-09-04T18:22:17.141Z,6.03
2022-09-04T18:24:45.875Z,4.43
2022-09-04T18:27:22.109Z,3.08
2022-09-04T18:34:30.952Z,3.03
2022-09-04T18:37:22.872Z,3.17
2022-09-04T18:37:26.549Z,2.95
2022-09-04T18:39:09.202Z,3.95
2022-09-04T18:48:02.671Z,3.22
2022-09-04T18:50:24.308Z,3.40
2022-09-04T18:50:53.391Z,3.35
2022-09-04T18:53:33.637Z,2.60
2022-09-04T18:56:03.233Z,3.75
2022-09-04T18:58:55.114Z,3.42
2022-09-04T19:01:24.533Z,3.35
2022-09-04T19:04:49.395Z,3.08
2022-09-04T19:07:27.371Z,3.22
2022-09-04T19:10:13.044Z,3.40
2022-09-04T19:12:55.813Z,4.45
2022-09-04T19:15:45.497Z,3.15
2022-09-04T19:18:23.463Z,3.45
2022-09-04T19:20:55.317Z,3.45
2022-09-04T19:23:33.948Z,3.58
2022-09-04T19:26:11.722Z,3.95
2022-09-04T19:28:52.589Z,3.30
2022-09-04T19:31:41.152Z,2.47
2022-09-04T19:34:07.693Z,3.35
2022-09-04T19:36:46.839Z,5.95
2022-09-04T19:45:56.103Z,3.72
2022-09-04T19:46:02.355Z,3.05
2022-09-04T19:46:08.760Z,3.20
2022-09-04T19:48:05.358Z,5.32
2022-09-04T19:53:18.952Z,3.75
2022-09-04T19:53:44.957Z,3.15
2022-09-04T19:56:15.169Z,4.03
2022-09-04T19:58:48.499Z,4.75
2022-09-04T20:01:17.562Z,3.92
2022-09-04T20:03:50.587Z,4.00
2022-09-04T20:06:34.271Z,4.93
2022-09-04T20:09:12.831Z,4.18
2022-09-04T20:11:45.948Z,3.88
2022-09-04T20:14:33.270Z,3.72
2022-09-04T20:17:14.036Z,2.97
2022-09-04T20:20:04.104Z,3.40
2022-09-04T20:22:37.785Z,4.50
2022-09-04T20:25:07.332Z,3.40
2022-09-04T20:27:42.509Z,4.38
2022-09-04T20:30:12.430Z,3.70
2022-09-04T20:33:11.790Z,3.50
2022-09-04T20:35:45.473Z,3.85
2022-09-04T20:38:23.147Z,3.35
2022-09-04T20:43:33.753Z,5.63
2022-09-04T20:51:39.767Z,3.88
2022-09-04T20:52:49.857Z,4.20
2022-09-04T20:52:53.302Z,4.00
2022-09-04T20:54:53.223Z,3.22
2022-09-04T21:03:05.599Z,4.43
2022-09-04T21:03:23.238Z,3.90
2022-09-04T21:04:47.453Z,4.72
2022-09-04T21:07:27.014Z,4.15
2022-09-04T21:10:23.788Z,4.47
2022-09-04T21:13:14.335Z,5.20
2022-09-04T21:15:48.200Z,4.53
2022-09-04T21:19:11.318Z,3.50
2022-09-04T21:21:47.122Z,5.55
2022-09-04T21:24:19.747Z,3.75
2022-09-04T21:26:55.745Z,3.53
2022-09-04T21:30:10.690Z,4.68
2022-09-04T21:32:58.666Z,3.30
2022-09-04T21:35:57.692Z,4.65
2022-09-04T21:39:11.333Z,4.28
2022-09-04T21:42:17.161Z,4.97
2022-09-04T21:44:56.308Z,3.63
2022-09-04T21:47:44.780Z,3.90
2022-09-04T21:50:15.015Z,4.35
2022-09-04T21:52:56.228Z,4.93
2022-09-04T22:01:37.782Z,5.40
2022-09-04T22:02:37.031Z,3.83
2022-09-04T22:02:45.891Z,3.70
2022-09-04T22:04:58.238Z,3.65
2022-09-04T22:12:14.852Z,4.82
2022-09-04T22:13:30.397Z,5.63
2022-09-04T22:13:49.285Z,7.00
2022-09-04T22:16:55.939Z,4.95
2022-09-04T22:19:41.336Z,3.72
2022-09-04T22:22:34.913Z,5.35
2022-09-04T22:25:06.409Z,3.53
2022-09-04T22:28:09.262Z,5.18
2022-09-04T22:31:06.781Z,4.30
2022-09-04T22:34:15.583Z,3.70
2022-09-04T22:37:00.631Z,4.50
2022-09-04T22:39:48.816Z,4.32
2022-09-04T22:42:36.744Z,4.57
2022-09-04T22:45:15.406Z,3.58
2022-09-04T22:48:00.709Z,6.53
2022-09-04T22:50:49.508Z,4.85
2022-09-04T22:53:40.748Z,3.95
2022-09-04T22:56:24.634Z,4.00
2022-09-04T22:59:26.516Z,4.80
2022-09-04T23:02:14.116Z,3.70
2022-09-04T23:05:04.747Z,6.03
2022-09-04T23:11:35.918Z,3.80
2022-09-04T23:13:47.523Z,4.05
2022-09-04T23:13:58.173Z,3.85
2022-09-04T23:16:42.928Z,4.28
2022-09-04T23:25:52.028Z,5.25
2022-09-04T23:26:38.021Z,4.45
2022-09-04T23:26:46.444Z,4.18
2022-09-04T23:29:06.606Z,3.70
2022-09-04T23:31:37.968Z,5.75
2022-09-04T23:34:42.547Z,5.38
2022-09-04T23:37:28.192Z,5.53
2022-09-04T23:40:17.064Z,3.92
2022-09-04T23:42:58.672Z,6.15
2022-09-04T23:46:01.367Z,4.00
2022-09-04T23:48:47.321Z,4.95
2022-09-04T23:51:32.971Z,3.80
2022-09-04T23:54:36.876Z,3.85
2022-09-04T23:57:26.637Z,4.97
